Sparks, Georgia
Current Conditions -  °F | °C
As of 11:30 PM on Monday 20 Oct 2014 (Local Time) from KTMA Reporting Station
Clear Clear  
Wind Chill: 60°   Ceiling: Unl
Heat Index: 60°   Visibility: 10mi
Dew Point: 58°   Wind: 0mph
Humidity: 95%   Direction: NA
Pressure: 30.01"   Gusts: NA
Location:  31.17°N, 83.44°W
Report Text: KTMA 210330Z AUTO 00000KT 10SM CLR 16/15 A3001 RMK AO2 T01550147 TSNO
Loading
Personal Weather Stations






























Interactive Weather Map
Tropical Storm Tracking
New forecast layout! Learn more

10-Day Weather Forecast

Advertisements
Track Severe Weather on mobile